PRJDB SLCB-SLLP
Flight info
| Callsign | PRJDB |
|---|---|
| Flight time | 0h 39m |
| Altitude | 28000 |
| Route | TEDOK UM793 PAZ |
| Aircraft | B350/L-SBGRW/S |
Departure
| Time | 2026-04-27 23:03 |
|---|---|
| Airport | Jorge Wilsterman International Airport (SLCB) |
Arrival
| Time | 2026-04-27 23:43 |
|---|---|
| Airport | El Alto International Airport (SLLP) |
| Time | Latitude | Longitude | Altitude | Speed | Heading |
|---|---|---|---|---|---|
| 2026-04-27 22:52 | -17.42341 | -66.16924 | 8357 ft | 0 kts | 121° |
| 2026-04-27 22:59 | -17.42341 | -66.16923 | 8357 ft | 1 kts | 121° |
| 2026-04-27 22:59 | -17.42362 | -66.16888 | 8357 ft | 9 kts | 123° |
| 2026-04-27 22:59 | -17.42384 | -66.16859 | 8357 ft | 7 kts | 156° |
| 2026-04-27 23:00 | -17.42476 | -66.16938 | 8357 ft | 11 kts | 223° |
| 2026-04-27 23:00 | -17.42533 | -66.16984 | 8357 ft | 9 kts | 203° |
| 2026-04-27 23:00 | -17.42602 | -66.17029 | 8356 ft | 14 kts | 224° |
| 2026-04-27 23:01 | -17.42640 | -66.17099 | 8357 ft | 10 kts | 278° |
| 2026-04-27 23:01 | -17.42624 | -66.17124 | 8356 ft | 0 kts | 310° |
| 2026-04-27 23:01 | -17.42620 | -66.17128 | 8356 ft | 0 kts | 309° |
| 2026-04-27 23:02 | -17.42618 | -66.17131 | 8356 ft | 2 kts | 309° |
| 2026-04-27 23:02 | -17.42591 | -66.17166 | 8356 ft | 10 kts | 310° |
| 2026-04-27 23:03 | -17.42436 | -66.17334 | 8358 ft | 72 kts | 318° |
| 2026-04-27 23:03 | -17.41959 | -66.17935 | 8402 ft | 136 kts | 303° |
| 2026-04-27 23:03 | -17.41394 | -66.18815 | 8909 ft | 149 kts | 299° |
| 2026-04-27 23:03 | -17.40897 | -66.19799 | 9521 ft | 162 kts | 300° |
| 2026-04-27 23:04 | -17.40367 | -66.20907 | 9996 ft | 173 kts | 295° |
| 2026-04-27 23:04 | -17.39893 | -66.22115 | 10273 ft | 194 kts | 298° |
| 2026-04-27 23:04 | -17.39247 | -66.23417 | 10489 ft | 208 kts | 300° |
| 2026-04-27 23:04 | -17.38526 | -66.24773 | 10722 ft | 217 kts | 301° |
| 2026-04-27 23:05 | -17.37820 | -66.26196 | 10943 ft | 224 kts | 289° |
| 2026-04-27 23:05 | -17.37917 | -66.27797 | 11163 ft | 231 kts | 248° |
| 2026-04-27 23:05 | -17.39007 | -66.29028 | 11418 ft | 235 kts | 217° |
| 2026-04-27 23:05 | -17.40384 | -66.29957 | 11696 ft | 236 kts | 214° |
| 2026-04-27 23:06 | -17.41799 | -66.30830 | 11987 ft | 235 kts | 213° |
| 2026-04-27 23:06 | -17.43203 | -66.31663 | 12365 ft | 231 kts | 212° |
| 2026-04-27 23:06 | -17.44613 | -66.32486 | 12653 ft | 232 kts | 212° |
| 2026-04-27 23:06 | -17.46028 | -66.33316 | 12954 ft | 234 kts | 211° |
| 2026-04-27 23:07 | -17.47442 | -66.34177 | 13318 ft | 235 kts | 214° |
| 2026-04-27 23:07 | -17.48780 | -66.35172 | 13691 ft | 236 kts | 218° |
| 2026-04-27 23:07 | -17.50086 | -66.36230 | 14051 ft | 237 kts | 219° |
| 2026-04-27 23:07 | -17.51376 | -66.37304 | 14395 ft | 238 kts | 220° |
| 2026-04-27 23:08 | -17.52664 | -66.38391 | 14733 ft | 238 kts | 220° |
| 2026-04-27 23:08 | -17.53955 | -66.39484 | 15080 ft | 239 kts | 220° |
| 2026-04-27 23:08 | -17.55244 | -66.40583 | 15410 ft | 239 kts | 220° |
| 2026-04-27 23:08 | -17.56527 | -66.41680 | 15755 ft | 238 kts | 220° |
| 2026-04-27 23:09 | -17.57792 | -66.42769 | 16103 ft | 238 kts | 220° |
| 2026-04-27 23:09 | -17.59068 | -66.43871 | 16452 ft | 237 kts | 220° |
| 2026-04-27 23:09 | -17.60347 | -66.44979 | 16757 ft | 240 kts | 220° |
| 2026-04-27 23:09 | -17.61442 | -66.46281 | 17054 ft | 241 kts | 248° |
| 2026-04-27 23:10 | -17.61527 | -66.48015 | 17349 ft | 246 kts | 287° |
| 2026-04-27 23:10 | -17.60509 | -66.49445 | 17640 ft | 253 kts | 321° |
| 2026-04-27 23:10 | -17.59011 | -66.50436 | 17882 ft | 256 kts | 331° |
| 2026-04-27 23:10 | -17.57376 | -66.51197 | 18109 ft | 258 kts | 335° |
| 2026-04-27 23:11 | -17.55700 | -66.51889 | 18417 ft | 259 kts | 337° |
| 2026-04-27 23:11 | -17.54012 | -66.52563 | 18674 ft | 260 kts | 336° |
| 2026-04-27 23:11 | -17.52356 | -66.53324 | 18928 ft | 260 kts | 332° |
| 2026-04-27 23:11 | -17.50726 | -66.54153 | 19207 ft | 261 kts | 331° |
| 2026-04-27 23:12 | -17.49100 | -66.55009 | 19483 ft | 262 kts | 331° |
| 2026-04-27 23:12 | -17.47471 | -66.55879 | 19751 ft | 263 kts | 330° |
| 2026-04-27 23:12 | -17.45842 | -66.56752 | 20019 ft | 263 kts | 330° |
| 2026-04-27 23:12 | -17.44212 | -66.57627 | 20304 ft | 263 kts | 331° |
| 2026-04-27 23:13 | -17.42584 | -66.58507 | 20597 ft | 264 kts | 331° |
| 2026-04-27 23:13 | -17.40972 | -66.59383 | 20884 ft | 265 kts | 330° |
| 2026-04-27 23:13 | -17.39338 | -66.60275 | 21173 ft | 266 kts | 330° |
| 2026-04-27 23:13 | -17.37697 | -66.61171 | 21452 ft | 266 kts | 330° |
| 2026-04-27 23:14 | -17.36053 | -66.62068 | 21753 ft | 266 kts | 330° |
| 2026-04-27 23:14 | -17.34407 | -66.62968 | 22050 ft | 267 kts | 331° |
| 2026-04-27 23:14 | -17.32766 | -66.63869 | 22341 ft | 267 kts | 330° |
| 2026-04-27 23:14 | -17.31119 | -66.64780 | 22652 ft | 267 kts | 330° |
| 2026-04-27 23:15 | -17.29482 | -66.65690 | 22956 ft | 267 kts | 330° |
| 2026-04-27 23:15 | -17.27845 | -66.66606 | 23267 ft | 267 kts | 330° |
| 2026-04-27 23:15 | -17.26213 | -66.67527 | 23581 ft | 266 kts | 330° |
| 2026-04-27 23:15 | -17.24584 | -66.68450 | 23872 ft | 265 kts | 330° |
| 2026-04-27 23:16 | -17.22965 | -66.69371 | 24133 ft | 265 kts | 330° |
| 2026-04-27 23:16 | -17.21349 | -66.70293 | 24363 ft | 265 kts | 330° |
| 2026-04-27 23:16 | -17.19830 | -66.71376 | 24579 ft | 264 kts | 316° |
| 2026-04-27 23:16 | -17.18682 | -66.72856 | 24805 ft | 263 kts | 299° |
| 2026-04-27 23:17 | -17.17882 | -66.74543 | 25026 ft | 262 kts | 294° |
| 2026-04-27 23:17 | -17.17108 | -66.76275 | 25251 ft | 262 kts | 295° |
| 2026-04-27 23:17 | -17.16276 | -66.77973 | 25477 ft | 262 kts | 297° |
| 2026-04-27 23:17 | -17.15413 | -66.79652 | 25695 ft | 262 kts | 298° |
| 2026-04-27 23:18 | -17.14537 | -66.81325 | 25929 ft | 262 kts | 298° |
| 2026-04-27 23:18 | -17.13654 | -66.83005 | 26079 ft | 265 kts | 298° |
| 2026-04-27 23:18 | -17.12751 | -66.84716 | 26152 ft | 271 kts | 298° |
| 2026-04-27 23:18 | -17.11830 | -66.86454 | 26192 ft | 276 kts | 298° |
| 2026-04-27 23:19 | -17.10924 | -66.88244 | 26210 ft | 281 kts | 296° |
| 2026-04-27 23:19 | -17.10076 | -66.90105 | 26213 ft | 285 kts | 294° |
| 2026-04-27 23:19 | -17.09245 | -66.92002 | 26217 ft | 288 kts | 294° |
| 2026-04-27 23:19 | -17.08418 | -66.93923 | 26217 ft | 291 kts | 294° |
| 2026-04-27 23:20 | -17.07602 | -66.95830 | 26213 ft | 292 kts | 293° |
| 2026-04-27 23:20 | -17.06770 | -66.97775 | 26213 ft | 293 kts | 294° |
| 2026-04-27 23:20 | -17.05939 | -66.99721 | 26215 ft | 294 kts | 293° |
| 2026-04-27 23:20 | -17.05094 | -67.01668 | 26216 ft | 294 kts | 293° |
| 2026-04-27 23:21 | -17.04238 | -67.03604 | 26217 ft | 294 kts | 294° |
| 2026-04-27 23:21 | -17.03376 | -67.05543 | 26216 ft | 294 kts | 294° |
| 2026-04-27 23:21 | -17.02512 | -67.07478 | 26213 ft | 294 kts | 294° |
| 2026-04-27 23:21 | -17.01644 | -67.09413 | 26212 ft | 293 kts | 294° |
| 2026-04-27 23:22 | -17.00782 | -67.11337 | 26218 ft | 293 kts | 294° |
| 2026-04-27 23:22 | -16.99913 | -67.13269 | 26204 ft | 293 kts | 294° |
| 2026-04-27 23:22 | -16.99052 | -67.15188 | 26220 ft | 292 kts | 293° |
| 2026-04-27 23:22 | -16.98182 | -67.17119 | 26219 ft | 294 kts | 294° |
| 2026-04-27 23:23 | -16.97315 | -67.19052 | 26217 ft | 294 kts | 294° |
| 2026-04-27 23:23 | -16.96456 | -67.20964 | 26209 ft | 294 kts | 294° |
| 2026-04-27 23:23 | -16.95588 | -67.22896 | 26207 ft | 294 kts | 294° |
| 2026-04-27 23:23 | -16.94718 | -67.24827 | 26213 ft | 294 kts | 294° |
| 2026-04-27 23:24 | -16.93848 | -67.26759 | 26211 ft | 294 kts | 294° |
| 2026-04-27 23:24 | -16.92981 | -67.28686 | 26205 ft | 294 kts | 294° |
| 2026-04-27 23:24 | -16.92111 | -67.30614 | 26200 ft | 293 kts | 294° |
| 2026-04-27 23:24 | -16.91239 | -67.32548 | 26206 ft | 293 kts | 294° |
| 2026-04-27 23:25 | -16.90371 | -67.34470 | 26201 ft | 293 kts | 294° |
| 2026-04-27 23:25 | -16.89499 | -67.36398 | 26195 ft | 293 kts | 294° |
| 2026-04-27 23:25 | -16.88627 | -67.38325 | 26189 ft | 293 kts | 294° |
| 2026-04-27 23:25 | -16.87757 | -67.40246 | 26188 ft | 293 kts | 294° |
| 2026-04-27 23:26 | -16.86881 | -67.42173 | 26181 ft | 293 kts | 294° |
| 2026-04-27 23:26 | -16.86007 | -67.44093 | 26186 ft | 293 kts | 294° |
| 2026-04-27 23:26 | -16.85130 | -67.46014 | 26185 ft | 293 kts | 294° |
| 2026-04-27 23:26 | -16.84251 | -67.47934 | 26178 ft | 293 kts | 294° |
| 2026-04-27 23:27 | -16.83382 | -67.49827 | 26181 ft | 293 kts | 294° |
| 2026-04-27 23:27 | -16.82500 | -67.51751 | 26179 ft | 294 kts | 294° |
| 2026-04-27 23:27 | -16.81617 | -67.53677 | 26178 ft | 294 kts | 294° |
| 2026-04-27 23:27 | -16.80732 | -67.55605 | 26172 ft | 295 kts | 294° |
| 2026-04-27 23:28 | -16.79847 | -67.57536 | 26166 ft | 295 kts | 294° |
| 2026-04-27 23:28 | -16.78960 | -67.59469 | 26168 ft | 295 kts | 294° |
| 2026-04-27 23:28 | -16.78070 | -67.61407 | 26162 ft | 295 kts | 294° |
| 2026-04-27 23:28 | -16.77479 | -67.62688 | 26171 ft | 296 kts | 294° |
| 2026-04-27 23:29 | -16.76283 | -67.65274 | 26155 ft | 296 kts | 294° |
| 2026-04-27 23:29 | -16.75393 | -67.67209 | 26152 ft | 296 kts | 294° |
| 2026-04-27 23:29 | -16.74507 | -67.69140 | 26157 ft | 295 kts | 294° |
| 2026-04-27 23:29 | -16.73619 | -67.71074 | 26149 ft | 295 kts | 294° |
| 2026-04-27 23:30 | -16.72733 | -67.73006 | 26138 ft | 295 kts | 294° |
| 2026-04-27 23:30 | -16.71848 | -67.74935 | 26136 ft | 294 kts | 294° |
| 2026-04-27 23:30 | -16.70965 | -67.76861 | 26009 ft | 298 kts | 294° |
| 2026-04-27 23:30 | -16.70050 | -67.78845 | 25537 ft | 305 kts | 294° |
| 2026-04-27 23:31 | -16.69124 | -67.80832 | 25084 ft | 303 kts | 294° |
| 2026-04-27 23:31 | -16.68227 | -67.82760 | 24661 ft | 303 kts | 294° |
| 2026-04-27 23:31 | -16.67308 | -67.84738 | 24220 ft | 303 kts | 294° |
| 2026-04-27 23:31 | -16.66403 | -67.86692 | 23814 ft | 304 kts | 294° |
| 2026-04-27 23:32 | -16.65472 | -67.88699 | 23341 ft | 304 kts | 294° |
| 2026-04-27 23:32 | -16.64561 | -67.90658 | 22872 ft | 304 kts | 294° |
| 2026-04-27 23:32 | -16.63634 | -67.92645 | 22412 ft | 304 kts | 294° |
| 2026-04-27 23:32 | -16.62707 | -67.94625 | 21938 ft | 303 kts | 294° |
| 2026-04-27 23:33 | -16.61783 | -67.96588 | 21486 ft | 301 kts | 294° |
| 2026-04-27 23:33 | -16.60858 | -67.98543 | 21055 ft | 300 kts | 294° |
| 2026-04-27 23:33 | -16.59934 | -68.00483 | 20635 ft | 298 kts | 294° |
| 2026-04-27 23:33 | -16.59009 | -68.02420 | 20217 ft | 298 kts | 294° |
| 2026-04-27 23:34 | -16.58092 | -68.04325 | 19792 ft | 297 kts | 294° |
| 2026-04-27 23:34 | -16.57164 | -68.06244 | 19395 ft | 296 kts | 294° |
| 2026-04-27 23:34 | -16.56238 | -68.08149 | 19075 ft | 292 kts | 294° |
| 2026-04-27 23:34 | -16.55327 | -68.10014 | 18864 ft | 285 kts | 294° |
| 2026-04-27 23:35 | -16.54442 | -68.11821 | 18749 ft | 275 kts | 294° |
| 2026-04-27 23:35 | -16.53586 | -68.13577 | 18682 ft | 269 kts | 294° |
| 2026-04-27 23:35 | -16.52746 | -68.15300 | 18670 ft | 264 kts | 294° |
| 2026-04-27 23:35 | -16.51919 | -68.16988 | 18661 ft | 260 kts | 294° |
| 2026-04-27 23:36 | -16.51097 | -68.18658 | 18651 ft | 257 kts | 294° |
| 2026-04-27 23:36 | -16.50272 | -68.20304 | 18645 ft | 256 kts | 295° |
| 2026-04-27 23:36 | -16.49438 | -68.21931 | 18649 ft | 254 kts | 295° |
| 2026-04-27 23:36 | -16.48586 | -68.23591 | 18247 ft | 268 kts | 295° |
| 2026-04-27 23:37 | -16.47693 | -68.25343 | 17750 ft | 279 kts | 296° |
| 2026-04-27 23:37 | -16.46777 | -68.27162 | 17265 ft | 286 kts | 296° |
| 2026-04-27 23:37 | -16.46172 | -68.28376 | 17034 ft | 286 kts | 296° |
| 2026-04-27 23:37 | -16.45269 | -68.30206 | 16778 ft | 281 kts | 296° |
| 2026-04-27 23:38 | -16.44394 | -68.31996 | 16639 ft | 274 kts | 295° |
| 2026-04-27 23:38 | -16.43550 | -68.33743 | 16549 ft | 267 kts | 293° |
| 2026-04-27 23:38 | -16.43255 | -68.35588 | 16501 ft | 257 kts | 258° |
| 2026-04-27 23:38 | -16.44529 | -68.37517 | 16460 ft | 249 kts | 208° |
| 2026-04-27 23:39 | -16.45639 | -68.37859 | 16447 ft | 247 kts | 182° |
| 2026-04-27 23:39 | -16.47243 | -68.37380 | 16467 ft | 247 kts | 147° |
| 2026-04-27 23:39 | -16.48580 | -68.36258 | 16480 ft | 247 kts | 140° |
| 2026-04-27 23:39 | -16.49842 | -68.35071 | 16493 ft | 236 kts | 142° |
| 2026-04-27 23:40 | -16.51055 | -68.33974 | 16270 ft | 231 kts | 135° |
| 2026-04-27 23:40 | -16.51895 | -68.32635 | 16261 ft | 213 kts | 116° |
| 2026-04-27 23:40 | -16.52232 | -68.31111 | 15688 ft | 225 kts | 94° |
| 2026-04-27 23:40 | -16.51963 | -68.29449 | 15068 ft | 237 kts | 72° |
| 2026-04-27 23:41 | -16.51432 | -68.27853 | 14678 ft | 231 kts | 74° |
| 2026-04-27 23:41 | -16.51175 | -68.26216 | 14111 ft | 226 kts | 87° |
| 2026-04-27 23:41 | -16.51174 | -68.24605 | 13405 ft | 221 kts | 90° |
| 2026-04-27 23:41 | -16.51206 | -68.23034 | 13312 ft | 209 kts | 91° |
| 2026-04-27 23:42 | -16.51263 | -68.21554 | 13243 ft | 203 kts | 92° |
| 2026-04-27 23:42 | -16.51317 | -68.20136 | 13214 ft | 181 kts | 91° |
| 2026-04-27 23:42 | -16.51341 | -68.19104 | 13280 ft | 105 kts | 91° |
| 2026-04-27 23:42 | -16.51353 | -68.18500 | 13294 ft | 55 kts | 92° |
| 2026-04-27 23:43 | -16.51346 | -68.18379 | 13297 ft | 0 kts | 63° |
| 2026-04-27 23:43 | -16.51328 | -68.18340 | 13297 ft | 21 kts | 63° |
| 2026-04-27 23:43 | -16.51254 | -68.18172 | 13298 ft | 28 kts | 53° |
| 2026-04-27 23:43 | -16.51144 | -68.18040 | 13322 ft | 17 kts | 47° |
| 2026-04-27 23:44 | -16.51060 | -68.17953 | 13331 ft | 17 kts | 49° |
| 2026-04-27 23:44 | -16.50997 | -68.17882 | 13332 ft | 9 kts | 45° |
| 2026-04-27 23:44 | -16.50953 | -68.17869 | 13332 ft | 5 kts | 360° |
| 2026-04-27 23:44 | -16.50924 | -68.17869 | 13332 ft | 2 kts | 359° |
| 2026-04-27 23:45 | -16.50921 | -68.17869 | 13332 ft | 0 kts | 359° |